sensor_id;sensor_type;location;lat;lon;timestamp;temperature;humidity
15296;DHT22;7749;49.964;7.890;2023-11-22T00:00:51;7.40;99.90
15296;DHT22;7749;49.964;7.890;2023-11-22T00:03:20;7.50;1.00
15296;DHT22;7749;49.964;7.890;2023-11-22T00:06:17;7.40;1.00
15296;DHT22;7749;49.964;7.890;2023-11-22T00:08:48;7.30;99.90
15296;DHT22;7749;49.964;7.890;2023-11-22T00:15:40;7.30;99.90
15296;DHT22;7749;49.964;7.890;2023-11-22T00:18:33;7.20;99.90
15296;DHT22;7749;49.964;7.890;2023-11-22T00:21:45;7.30;99.90
15296;DHT22;7749;49.964;7.890;2023-11-22T00:24:36;7.20;99.90
15296;DHT22;7749;49.964;7.890;2023-11-22T00:27:04;7.20;99.90
15296;DHT22;7749;49.964;7.890;2023-11-22T00:29:32;7.20;99.90
15296;DHT22;7749;49.964;7.890;2023-11-22T00:31:59;7.20;99.90
15296;DHT22;7749;49.964;7.890;2023-11-22T00:34:27;7.20;99.90
15296;DHT22;7749;49.964;7.890;2023-11-22T00:36:55;7.10;99.90
15296;DHT22;7749;49.964;7.890;2023-11-22T00:39:22;7.20;99.90
15296;DHT22;7749;49.964;7.890;2023-11-22T00:41:50;7.10;99.90
15296;DHT22;7749;49.964;7.890;2023-11-22T00:44:17;7.00;99.90
15296;DHT22;7749;49.964;7.890;2023-11-22T00:46:45;7.10;99.90
15296;DHT22;7749;49.964;7.890;2023-11-22T00:53:39;6.90;99.90
15296;DHT22;7749;49.964;7.890;2023-11-22T00:56:07;6.90;1.00
15296;DHT22;7749;49.964;7.890;2023-11-22T00:58:34;6.70;1.00
15296;DHT22;7749;49.964;7.890;2023-11-22T01:01:02;6.70;1.00
15296;DHT22;7749;49.964;7.890;2023-11-22T01:03:29;6.70;1.00
15296;DHT22;7749;49.964;7.890;2023-11-22T01:05:57;6.60;1.00
15296;DHT22;7749;49.964;7.890;2023-11-22T01:08:25;6.60;1.00
15296;DHT22;7749;49.964;7.890;2023-11-22T01:10:53;6.70;1.00
15296;DHT22;7749;49.964;7.890;2023-11-22T01:13:21;6.60;1.00
15296;DHT22;7749;49.964;7.890;2023-11-22T01:15:49;6.60;1.00
15296;DHT22;7749;49.964;7.890;2023-11-22T01:18:17;6.40;1.00
15296;DHT22;7749;49.964;7.890;2023-11-22T01:20:55;6.50;1.00
15296;DHT22;7749;49.964;7.890;2023-11-22T01:23:31;6.50;1.00
15296;DHT22;7749;49.964;7.890;2023-11-22T01:30:04;6.40;1.00
15296;DHT22;7749;49.964;7.890;2023-11-22T01:32:35;6.30;1.00
15296;DHT22;7749;49.964;7.890;2023-11-22T01:35:03;6.30;1.00
15296;DHT22;7749;49.964;7.890;2023-11-22T01:41:25;6.20;1.00
15296;DHT22;7749;49.964;7.890;2023-11-22T01:43:53;6.20;1.00
15296;DHT22;7749;49.964;7.890;2023-11-22T01:46:24;6.20;1.00
15296;DHT22;7749;49.964;7.890;2023-11-22T01:48:54;6.10;1.00
15296;DHT22;7749;49.964;7.890;2023-11-22T01:51:22;6.10;1.00
15296;DHT22;7749;49.964;7.890;2023-11-22T01:53:52;6.20;1.00
15296;DHT22;7749;49.964;7.890;2023-11-22T01:56:26;6.10;1.00
15296;DHT22;7749;49.964;7.890;2023-11-22T01:58:55;6.10;1.00
15296;DHT22;7749;49.964;7.890;2023-11-22T02:01:28;6.00;1.00
15296;DHT22;7749;49.964;7.890;2023-11-22T02:03:56;6.10;1.00
15296;DHT22;7749;49.964;7.890;2023-11-22T02:06:25;6.00;1.00
15296;DHT22;7749;49.964;7.890;2023-11-22T02:08:53;5.90;1.00
15296;DHT22;7749;49.964;7.890;2023-11-22T02:11:20;5.90;1.00
15296;DHT22;7749;49.964;7.890;2023-11-22T02:13:50;6.00;1.00
15296;DHT22;7749;49.964;7.890;2023-11-22T02:16:18;6.00;1.00
15296;DHT22;7749;49.964;7.890;2023-11-22T02:18:50;6.00;1.00
15296;DHT22;7749;49.964;7.890;2023-11-22T02:21:18;6.10;1.00
15296;DHT22;7749;49.964;7.890;2023-11-22T02:23:46;6.20;1.00
15296;DHT22;7749;49.964;7.890;2023-11-22T02:26:14;6.20;1.00
15296;DHT22;7749;49.964;7.890;2023-11-22T02:28:45;6.20;1.00
15296;DHT22;7749;49.964;7.890;2023-11-22T02:31:13;6.40;1.00
15296;DHT22;7749;49.964;7.890;2023-11-22T02:33:41;6.20;1.00
15296;DHT22;7749;49.964;7.890;2023-11-22T02:45:29;6.50;1.00
15296;DHT22;7749;49.964;7.890;2023-11-22T02:48:13;6.50;99.90
15296;DHT22;7749;49.964;7.890;2023-11-22T02:50:41;6.40;14.60
15296;DHT22;7749;49.964;7.890;2023-11-22T02:53:11;6.40;41.10
15296;DHT22;7749;49.964;7.890;2023-11-22T02:55:40;6.40;1.00
15296;DHT22;7749;49.964;7.890;2023-11-22T02:58:08;6.50;99.90
15296;DHT22;7749;49.964;7.890;2023-11-22T03:00:42;6.40;1.00
15296;DHT22;7749;49.964;7.890;2023-11-22T03:03:11;6.30;99.90
15296;DHT22;7749;49.964;7.890;2023-11-22T03:05:40;6.40;99.90
15296;DHT22;7749;49.964;7.890;2023-11-22T03:08:08;6.40;99.90
15296;DHT22;7749;49.964;7.890;2023-11-22T03:11:02;6.40;99.90
15296;DHT22;7749;49.964;7.890;2023-11-22T03:13:33;6.30;24.50
15296;DHT22;7749;49.964;7.890;2023-11-22T03:16:26;6.40;91.20
15296;DHT22;7749;49.964;7.890;2023-11-22T03:19:30;6.30;99.90
15296;DHT22;7749;49.964;7.890;2023-11-22T03:22:31;6.50;1.00
15296;DHT22;7749;49.964;7.890;2023-11-22T03:25:16;6.40;99.90
15296;DHT22;7749;49.964;7.890;2023-11-22T03:28:00;6.40;94.50
15296;DHT22;7749;49.964;7.890;2023-11-22T03:30:28;6.40;1.00
15296;DHT22;7749;49.964;7.890;2023-11-22T03:33:05;6.40;1.00
15296;DHT22;7749;49.964;7.890;2023-11-22T03:35:36;6.40;99.90
15296;DHT22;7749;49.964;7.890;2023-11-22T03:38:03;6.40;11.10
15296;DHT22;7749;49.964;7.890;2023-11-22T03:40:31;6.30;38.70
15296;DHT22;7749;49.964;7.890;2023-11-22T03:42:59;6.20;1.00
15296;DHT22;7749;49.964;7.890;2023-11-22T03:45:27;6.20;1.00
15296;DHT22;7749;49.964;7.890;2023-11-22T03:48:15;6.20;1.00
15296;DHT22;7749;49.964;7.890;2023-11-22T03:50:43;6.10;1.00
15296;DHT22;7749;49.964;7.890;2023-11-22T03:53:10;6.00;99.90
15296;DHT22;7749;49.964;7.890;2023-11-22T03:55:38;6.00;1.00
15296;DHT22;7749;49.964;7.890;2023-11-22T03:58:06;6.00;1.00
15296;DHT22;7749;49.964;7.890;2023-11-22T04:01:08;5.90;1.00
15296;DHT22;7749;49.964;7.890;2023-11-22T04:04:48;5.80;1.00
15296;DHT22;7749;49.964;7.890;2023-11-22T04:07:16;5.80;8.90
15296;DHT22;7749;49.964;7.890;2023-11-22T04:09:43;5.70;91.70
15296;DHT22;7749;49.964;7.890;2023-11-22T04:12:11;5.70;99.90
15296;DHT22;7749;49.964;7.890;2023-11-22T04:14:39;5.70;99.90
15296;DHT22;7749;49.964;7.890;2023-11-22T04:17:07;5.60;99.90
15296;DHT22;7749;49.964;7.890;2023-11-22T04:19:35;5.60;99.90
15296;DHT22;7749;49.964;7.890;2023-11-22T04:22:03;5.50;99.90
15296;DHT22;7749;49.964;7.890;2023-11-22T04:24:31;5.50;99.90
15296;DHT22;7749;49.964;7.890;2023-11-22T04:26:59;5.50;99.90
15296;DHT22;7749;49.964;7.890;2023-11-22T04:29:26;5.60;99.90
15296;DHT22;7749;49.964;7.890;2023-11-22T04:35:16;5.50;99.90
15296;DHT22;7749;49.964;7.890;2023-11-22T04:37:47;5.40;1.00
15296;DHT22;7749;49.964;7.890;2023-11-22T04:40:15;5.40;99.90
15296;DHT22;7749;49.964;7.890;2023-11-22T04:42:43;5.40;99.90
15296;DHT22;7749;49.964;7.890;2023-11-22T04:45:12;5.40;99.90
15296;DHT22;7749;49.964;7.890;2023-11-22T04:47:40;5.30;99.90
15296;DHT22;7749;49.964;7.890;2023-11-22T04:50:08;5.30;99.90
15296;DHT22;7749;49.964;7.890;2023-11-22T04:52:37;5.30;99.90
15296;DHT22;7749;49.964;7.890;2023-11-22T04:55:05;5.30;99.90
15296;DHT22;7749;49.964;7.890;2023-11-22T04:57:33;5.30;99.90
15296;DHT22;7749;49.964;7.890;2023-11-22T05:00:01;5.30;99.90
15296;DHT22;7749;49.964;7.890;2023-11-22T05:02:31;5.30;1.00
15296;DHT22;7749;49.964;7.890;2023-11-22T05:05:01;5.20;1.00
15296;DHT22;7749;49.964;7.890;2023-11-22T05:07:29;5.20;1.00
15296;DHT22;7749;49.964;7.890;2023-11-22T05:13:27;5.20;1.00
15296;DHT22;7749;49.964;7.890;2023-11-22T05:15:55;5.10;1.00
15296;DHT22;7749;49.964;7.890;2023-11-22T05:18:23;5.10;1.00
15296;DHT22;7749;49.964;7.890;2023-11-22T05:20:50;5.10;1.00
15296;DHT22;7749;49.964;7.890;2023-11-22T05:23:19;5.00;1.00
15296;DHT22;7749;49.964;7.890;2023-11-22T05:25:46;5.00;1.00
15296;DHT22;7749;49.964;7.890;2023-11-22T05:28:14;5.00;1.00
15296;DHT22;7749;49.964;7.890;2023-11-22T05:30:42;4.90;1.00
15296;DHT22;7749;49.964;7.890;2023-11-22T05:33:10;4.90;1.00
15296;DHT22;7749;49.964;7.890;2023-11-22T05:35:38;4.90;1.00
15296;DHT22;7749;49.964;7.890;2023-11-22T05:38:05;4.90;1.00
15296;DHT22;7749;49.964;7.890;2023-11-22T05:41:01;4.90;1.00
15296;DHT22;7749;49.964;7.890;2023-11-22T05:43:29;4.80;1.00
15296;DHT22;7749;49.964;7.890;2023-11-22T05:49:49;4.70;1.00
15296;DHT22;7749;49.964;7.890;2023-11-22T05:52:18;4.70;1.00
15296;DHT22;7749;49.964;7.890;2023-11-22T05:54:47;4.70;1.00
15296;DHT22;7749;49.964;7.890;2023-11-22T05:57:15;4.70;1.00
15296;DHT22;7749;49.964;7.890;2023-11-22T05:59:43;4.70;1.00
15296;DHT22;7749;49.964;7.890;2023-11-22T06:02:10;4.60;1.00
15296;DHT22;7749;49.964;7.890;2023-11-22T06:04:38;4.60;1.00
15296;DHT22;7749;49.964;7.890;2023-11-22T06:07:08;4.60;1.00
15296;DHT22;7749;49.964;7.890;2023-11-22T06:09:36;4.60;1.00
15296;DHT22;7749;49.964;7.890;2023-11-22T06:12:04;4.60;1.00
15296;DHT22;7749;49.964;7.890;2023-11-22T06:14:41;4.60;1.00
15296;DHT22;7749;49.964;7.890;2023-11-22T06:17:33;4.70;1.00
15296;DHT22;7749;49.964;7.890;2023-11-22T06:20:01;4.50;1.00
15296;DHT22;7749;49.964;7.890;2023-11-22T06:22:30;4.60;1.00
15296;DHT22;7749;49.964;7.890;2023-11-22T06:25:00;4.60;1.00
15296;DHT22;7749;49.964;7.890;2023-11-22T06:27:28;4.60;1.00
15296;DHT22;7749;49.964;7.890;2023-11-22T06:29:56;4.60;1.00
15296;DHT22;7749;49.964;7.890;2023-11-22T06:32:23;4.60;1.00
15296;DHT22;7749;49.964;7.890;2023-11-22T06:34:51;4.50;1.00
15296;DHT22;7749;49.964;7.890;2023-11-22T06:37:19;4.50;1.00
15296;DHT22;7749;49.964;7.890;2023-11-22T06:39:48;4.50;99.90
15296;DHT22;7749;49.964;7.890;2023-11-22T06:46:04;4.40;99.90
15296;DHT22;7749;49.964;7.890;2023-11-22T06:49:04;4.40;1.00
15296;DHT22;7749;49.964;7.890;2023-11-22T06:56:26;4.40;1.00
15296;DHT22;7749;49.964;7.890;2023-11-22T06:59:35;4.40;81.60
15296;DHT22;7749;49.964;7.890;2023-11-22T07:02:48;4.40;1.00
15296;DHT22;7749;49.964;7.890;2023-11-22T07:06:44;4.40;1.00
15296;DHT22;7749;49.964;7.890;2023-11-22T07:09:12;4.30;1.00
15296;DHT22;7749;49.964;7.890;2023-11-22T07:11:41;4.30;99.90
15296;DHT22;7749;49.964;7.890;2023-11-22T07:14:11;4.30;1.00
15296;DHT22;7749;49.964;7.890;2023-11-22T07:16:39;4.30;99.90
15296;DHT22;7749;49.964;7.890;2023-11-22T07:19:08;4.30;99.90
15296;DHT22;7749;49.964;7.890;2023-11-22T07:21:35;4.20;88.20
15296;DHT22;7749;49.964;7.890;2023-11-22T07:24:05;4.30;1.00
15296;DHT22;7749;49.964;7.890;2023-11-22T07:26:36;4.30;10.90
15296;DHT22;7749;49.964;7.890;2023-11-22T07:29:04;4.30;1.00
15296;DHT22;7749;49.964;7.890;2023-11-22T07:31:33;4.30;70.40
15296;DHT22;7749;49.964;7.890;2023-11-22T07:34:01;4.30;1.00
15296;DHT22;7749;49.964;7.890;2023-11-22T07:36:29;4.20;99.90
15296;DHT22;7749;49.964;7.890;2023-11-22T07:38:58;4.20;99.90
15296;DHT22;7749;49.964;7.890;2023-11-22T07:41:26;4.30;99.90
15296;DHT22;7749;49.964;7.890;2023-11-22T07:43:54;4.30;99.90
15296;DHT22;7749;49.964;7.890;2023-11-22T07:46:21;4.30;30.00
15296;DHT22;7749;49.964;7.890;2023-11-22T07:48:49;4.40;1.00
15296;DHT22;7749;49.964;7.890;2023-11-22T07:51:16;4.40;77.90
15296;DHT22;7749;49.964;7.890;2023-11-22T07:53:44;4.50;1.90
15296;DHT22;7749;49.964;7.890;2023-11-22T07:56:12;4.50;1.00
15296;DHT22;7749;49.964;7.890;2023-11-22T07:58:41;4.60;99.90
15296;DHT22;7749;49.964;7.890;2023-11-22T08:01:08;4.60;1.00
15296;DHT22;7749;49.964;7.890;2023-11-22T08:03:40;4.50;99.90
15296;DHT22;7749;49.964;7.890;2023-11-22T08:06:17;4.60;99.90
15296;DHT22;7749;49.964;7.890;2023-11-22T08:08:44;4.70;99.90
15296;DHT22;7749;49.964;7.890;2023-11-22T08:11:14;4.80;22.20
15296;DHT22;7749;49.964;7.890;2023-11-22T08:13:48;4.80;99.90
15296;DHT22;7749;49.964;7.890;2023-11-22T08:16:15;4.90;99.90
15296;DHT22;7749;49.964;7.890;2023-11-22T08:18:43;4.90;99.90
15296;DHT22;7749;49.964;7.890;2023-11-22T08:21:11;5.00;99.90
15296;DHT22;7749;49.964;7.890;2023-11-22T08:23:39;5.10;99.90
15296;DHT22;7749;49.964;7.890;2023-11-22T08:26:07;5.00;27.60
15296;DHT22;7749;49.964;7.890;2023-11-22T08:28:36;5.10;99.90
15296;DHT22;7749;49.964;7.890;2023-11-22T08:31:03;5.20;1.00
15296;DHT22;7749;49.964;7.890;2023-11-22T08:33:38;5.10;1.00
15296;DHT22;7749;49.964;7.890;2023-11-22T08:36:07;5.10;1.00
15296;DHT22;7749;49.964;7.890;2023-11-22T08:38:35;5.20;1.00
15296;DHT22;7749;49.964;7.890;2023-11-22T08:41:04;5.20;99.90
15296;DHT22;7749;49.964;7.890;2023-11-22T08:43:35;5.10;1.00
15296;DHT22;7749;49.964;7.890;2023-11-22T08:46:03;5.10;99.90
15296;DHT22;7749;49.964;7.890;2023-11-22T08:48:41;5.10;99.90
15296;DHT22;7749;49.964;7.890;2023-11-22T08:51:10;5.20;99.90
15296;DHT22;7749;49.964;7.890;2023-11-22T08:53:38;5.20;99.90
15296;DHT22;7749;49.964;7.890;2023-11-22T08:56:05;5.20;99.90
15296;DHT22;7749;49.964;7.890;2023-11-22T08:58:37;5.30;99.90
15296;DHT22;7749;49.964;7.890;2023-11-22T09:01:06;5.40;1.00
15296;DHT22;7749;49.964;7.890;2023-11-22T09:03:34;5.50;1.00
15296;DHT22;7749;49.964;7.890;2023-11-22T09:06:02;5.50;99.90
15296;DHT22;7749;49.964;7.890;2023-11-22T09:08:30;5.60;99.90
15296;DHT22;7749;49.964;7.890;2023-11-22T09:10:58;5.60;1.00
15296;DHT22;7749;49.964;7.890;2023-11-22T09:13:25;5.60;1.00
15296;DHT22;7749;49.964;7.890;2023-11-22T09:15:53;5.50;1.00
15296;DHT22;7749;49.964;7.890;2023-11-22T09:18:20;5.50;1.00
15296;DHT22;7749;49.964;7.890;2023-11-22T09:20:49;5.70;1.00
15296;DHT22;7749;49.964;7.890;2023-11-22T09:23:16;5.80;99.90
15296;DHT22;7749;49.964;7.890;2023-11-22T09:25:44;5.90;99.90
15296;DHT22;7749;49.964;7.890;2023-11-22T09:28:12;6.10;99.90
15296;DHT22;7749;49.964;7.890;2023-11-22T09:30:43;6.30;1.00
15296;DHT22;7749;49.964;7.890;2023-11-22T09:33:16;6.50;1.00
15296;DHT22;7749;49.964;7.890;2023-11-22T09:35:46;6.50;1.00
15296;DHT22;7749;49.964;7.890;2023-11-22T09:38:15;6.50;1.00
15296;DHT22;7749;49.964;7.890;2023-11-22T09:40:49;6.60;99.90
15296;DHT22;7749;49.964;7.890;2023-11-22T09:43:18;6.50;1.00
15296;DHT22;7749;49.964;7.890;2023-11-22T09:45:48;6.60;99.90
15296;DHT22;7749;49.964;7.890;2023-11-22T09:48:23;6.80;99.90
15296;DHT22;7749;49.964;7.890;2023-11-22T09:51:03;6.70;99.90
15296;DHT22;7749;49.964;7.890;2023-11-22T09:56:03;5.80;99.90
15296;DHT22;7749;49.964;7.890;2023-11-22T09:58:31;5.80;99.90
15296;DHT22;7749;49.964;7.890;2023-11-22T10:01:01;5.90;1.00
15296;DHT22;7749;49.964;7.890;2023-11-22T10:03:28;5.90;99.90
15296;DHT22;7749;49.964;7.890;2023-11-22T10:05:57;5.80;99.90
15296;DHT22;7749;49.964;7.890;2023-11-22T10:08:32;5.80;99.90
15296;DHT22;7749;49.964;7.890;2023-11-22T10:11:00;6.00;99.90
15296;DHT22;7749;49.964;7.890;2023-11-22T10:13:27;6.10;99.90
15296;DHT22;7749;49.964;7.890;2023-11-22T10:15:55;6.30;99.90
15296;DHT22;7749;49.964;7.890;2023-11-22T10:18:22;6.50;99.90
15296;DHT22;7749;49.964;7.890;2023-11-22T10:20:52;6.70;1.00
15296;DHT22;7749;49.964;7.890;2023-11-22T10:23:20;6.80;1.00
15296;DHT22;7749;49.964;7.890;2023-11-22T10:25:53;6.90;1.00
15296;DHT22;7749;49.964;7.890;2023-11-22T10:28:21;8.00;1.00
15296;DHT22;7749;49.964;7.890;2023-11-22T10:30:50;10.30;99.90
15296;DHT22;7749;49.964;7.890;2023-11-22T10:33:19;11.30;99.90
15296;DHT22;7749;49.964;7.890;2023-11-22T10:35:51;12.10;1.00
15296;DHT22;7749;49.964;7.890;2023-11-22T10:38:20;12.10;1.00
15296;DHT22;7749;49.964;7.890;2023-11-22T10:40:48;12.20;1.00
15296;DHT22;7749;49.964;7.890;2023-11-22T10:43:19;13.00;1.00
15296;DHT22;7749;49.964;7.890;2023-11-22T10:45:50;13.10;1.00
15296;DHT22;7749;49.964;7.890;2023-11-22T10:48:21;12.60;1.00
15296;DHT22;7749;49.964;7.890;2023-11-22T10:50:49;12.60;1.00
15296;DHT22;7749;49.964;7.890;2023-11-22T10:53:21;13.70;1.00
15296;DHT22;7749;49.964;7.890;2023-11-22T10:55:58;15.00;1.00
15296;DHT22;7749;49.964;7.890;2023-11-22T10:58:32;16.70;1.00
15296;DHT22;7749;49.964;7.890;2023-11-22T11:01:05;17.90;1.00
15296;DHT22;7749;49.964;7.890;2023-11-22T11:03:37;17.80;99.90
15296;DHT22;7749;49.964;7.890;2023-11-22T11:06:10;17.60;99.90
15296;DHT22;7749;49.964;7.890;2023-11-22T11:08:41;18.60;99.90
15296;DHT22;7749;49.964;7.890;2023-11-22T11:11:11;18.10;99.90
15296;DHT22;7749;49.964;7.890;2023-11-22T11:13:40;18.40;99.90
15296;DHT22;7749;49.964;7.890;2023-11-22T11:16:09;17.80;99.90
15296;DHT22;7749;49.964;7.890;2023-11-22T11:18:37;16.40;99.90
15296;DHT22;7749;49.964;7.890;2023-11-22T11:21:09;15.70;99.90
15296;DHT22;7749;49.964;7.890;2023-11-22T11:23:40;15.00;99.90
15296;DHT22;7749;49.964;7.890;2023-11-22T11:26:19;13.80;99.90
15296;DHT22;7749;49.964;7.890;2023-11-22T11:28:51;13.50;99.90
15296;DHT22;7749;49.964;7.890;2023-11-22T11:31:23;13.50;99.90
15296;DHT22;7749;49.964;7.890;2023-11-22T11:33:55;14.40;99.90
15296;DHT22;7749;49.964;7.890;2023-11-22T11:36:24;14.80;99.90
15296;DHT22;7749;49.964;7.890;2023-11-22T11:38:56;15.40;99.90
15296;DHT22;7749;49.964;7.890;2023-11-22T11:43:58;17.60;99.90
15296;DHT22;7749;49.964;7.890;2023-11-22T11:46:29;18.70;99.90
15296;DHT22;7749;49.964;7.890;2023-11-22T11:48:57;19.50;99.90
15296;DHT22;7749;49.964;7.890;2023-11-22T11:51:28;20.20;99.90
15296;DHT22;7749;49.964;7.890;2023-11-22T11:53:56;20.20;99.90
15296;DHT22;7749;49.964;7.890;2023-11-22T11:56:23;19.60;99.90
15296;DHT22;7749;49.964;7.890;2023-11-22T11:58:56;17.80;99.90
15296;DHT22;7749;49.964;7.890;2023-11-22T12:01:28;16.50;99.90
15296;DHT22;7749;49.964;7.890;2023-11-22T12:03:57;16.00;99.90
15296;DHT22;7749;49.964;7.890;2023-11-22T12:06:25;15.60;99.90
15296;DHT22;7749;49.964;7.890;2023-11-22T12:08:54;15.30;99.90
15296;DHT22;7749;49.964;7.890;2023-11-22T12:11:21;14.90;99.90
15296;DHT22;7749;49.964;7.890;2023-11-22T12:13:49;14.50;99.90
15296;DHT22;7749;49.964;7.890;2023-11-22T12:16:19;14.30;99.90
15296;DHT22;7749;49.964;7.890;2023-11-22T12:18:49;13.10;99.90
15296;DHT22;7749;49.964;7.890;2023-11-22T12:21:17;12.20;99.90
15296;DHT22;7749;49.964;7.890;2023-11-22T12:23:46;11.70;99.90
15296;DHT22;7749;49.964;7.890;2023-11-22T12:26:19;11.10;99.90
15296;DHT22;7749;49.964;7.890;2023-11-22T12:28:49;10.70;1.00
15296;DHT22;7749;49.964;7.890;2023-11-22T12:31:30;10.50;1.00
15296;DHT22;7749;49.964;7.890;2023-11-22T12:34:04;11.20;1.00
15296;DHT22;7749;49.964;7.890;2023-11-22T12:36:34;12.70;1.00
15296;DHT22;7749;49.964;7.890;2023-11-22T12:39:08;14.10;99.90
15296;DHT22;7749;49.964;7.890;2023-11-22T12:41:44;13.30;99.90
15296;DHT22;7749;49.964;7.890;2023-11-22T12:44:17;13.40;99.90
15296;DHT22;7749;49.964;7.890;2023-11-22T12:49:26;12.80;99.90
15296;DHT22;7749;49.964;7.890;2023-11-22T12:51:55;12.90;99.90
15296;DHT22;7749;49.964;7.890;2023-11-22T12:54:23;14.00;99.90
15296;DHT22;7749;49.964;7.890;2023-11-22T12:56:51;14.10;99.90
15296;DHT22;7749;49.964;7.890;2023-11-22T12:59:21;13.70;99.90
15296;DHT22;7749;49.964;7.890;2023-11-22T13:01:49;13.50;99.90
15296;DHT22;7749;49.964;7.890;2023-11-22T13:04:16;12.70;99.90
15296;DHT22;7749;49.964;7.890;2023-11-22T13:06:44;12.40;99.90
15296;DHT22;7749;49.964;7.890;2023-11-22T13:09:12;13.30;99.90
15296;DHT22;7749;49.964;7.890;2023-11-22T13:11:42;13.60;99.90
15296;DHT22;7749;49.964;7.890;2023-11-22T13:14:11;13.90;99.90
15296;DHT22;7749;49.964;7.890;2023-11-22T13:16:41;15.00;99.90
15296;DHT22;7749;49.964;7.890;2023-11-22T13:19:10;15.30;99.90
15296;DHT22;7749;49.964;7.890;2023-11-22T13:21:37;16.10;99.90
15296;DHT22;7749;49.964;7.890;2023-11-22T13:24:05;16.80;99.90
15296;DHT22;7749;49.964;7.890;2023-11-22T13:26:34;17.30;99.90
15296;DHT22;7749;49.964;7.890;2023-11-22T13:29:02;16.90;99.90
15296;DHT22;7749;49.964;7.890;2023-11-22T13:31:29;16.60;99.90
15296;DHT22;7749;49.964;7.890;2023-11-22T13:33:57;16.30;99.90
15296;DHT22;7749;49.964;7.890;2023-11-22T13:36:24;16.10;99.90
15296;DHT22;7749;49.964;7.890;2023-11-22T13:38:52;15.40;99.90
15296;DHT22;7749;49.964;7.890;2023-11-22T13:41:22;15.30;99.90
15296;DHT22;7749;49.964;7.890;2023-11-22T13:43:52;15.30;99.90
15296;DHT22;7749;49.964;7.890;2023-11-22T13:46:20;14.90;99.90
15296;DHT22;7749;49.964;7.890;2023-11-22T13:48:48;14.20;99.90
15296;DHT22;7749;49.964;7.890;2023-11-22T13:51:15;13.80;99.90
15296;DHT22;7749;49.964;7.890;2023-11-22T13:53:43;13.70;99.90
15296;DHT22;7749;49.964;7.890;2023-11-22T13:56:16;13.50;99.90
15296;DHT22;7749;49.964;7.890;2023-11-22T13:58:45;13.10;99.90
15296;DHT22;7749;49.964;7.890;2023-11-22T14:01:13;12.60;99.90
15296;DHT22;7749;49.964;7.890;2023-11-22T14:03:49;12.00;99.90
15296;DHT22;7749;49.964;7.890;2023-11-22T14:06:17;11.10;99.90
15296;DHT22;7749;49.964;7.890;2023-11-22T14:08:44;10.50;99.90
15296;DHT22;7749;49.964;7.890;2023-11-22T14:11:13;9.90;1.00
15296;DHT22;7749;49.964;7.890;2023-11-22T14:13:41;9.20;1.00
15296;DHT22;7749;49.964;7.890;2023-11-22T14:16:08;8.80;1.00
15296;DHT22;7749;49.964;7.890;2023-11-22T14:18:36;8.50;1.00
15296;DHT22;7749;49.964;7.890;2023-11-22T14:21:04;8.20;1.00
15296;DHT22;7749;49.964;7.890;2023-11-22T14:23:32;8.00;1.00
15296;DHT22;7749;49.964;7.890;2023-11-22T14:26:00;7.70;1.00
15296;DHT22;7749;49.964;7.890;2023-11-22T14:28:29;7.50;1.00
15296;DHT22;7749;49.964;7.890;2023-11-22T14:30:57;7.40;1.00
15296;DHT22;7749;49.964;7.890;2023-11-22T14:33:24;7.40;1.00
15296;DHT22;7749;49.964;7.890;2023-11-22T14:35:52;7.40;49.20
15296;DHT22;7749;49.964;7.890;2023-11-22T14:38:19;7.40;22.20
15296;DHT22;7749;49.964;7.890;2023-11-22T14:40:48;7.40;1.00
15296;DHT22;7749;49.964;7.890;2023-11-22T14:43:16;7.30;13.90
15296;DHT22;7749;49.964;7.890;2023-11-22T14:45:44;7.10;88.30
15296;DHT22;7749;49.964;7.890;2023-11-22T14:48:11;7.10;84.70
15296;DHT22;7749;49.964;7.890;2023-11-22T14:50:43;7.10;99.90
15296;DHT22;7749;49.964;7.890;2023-11-22T14:53:11;7.10;99.90
15296;DHT22;7749;49.964;7.890;2023-11-22T14:55:38;7.10;99.90
15296;DHT22;7749;49.964;7.890;2023-11-22T14:58:08;7.00;99.90
15296;DHT22;7749;49.964;7.890;2023-11-22T15:00:36;6.90;99.90
15296;DHT22;7749;49.964;7.890;2023-11-22T15:03:04;6.80;99.90
15296;DHT22;7749;49.964;7.890;2023-11-22T15:05:32;6.70;99.90
15296;DHT22;7749;49.964;7.890;2023-11-22T15:07:59;6.70;99.90
15296;DHT22;7749;49.964;7.890;2023-11-22T15:10:27;6.60;99.90
15296;DHT22;7749;49.964;7.890;2023-11-22T15:12:55;6.50;99.90
15296;DHT22;7749;49.964;7.890;2023-11-22T15:15:23;6.40;99.90
15296;DHT22;7749;49.964;7.890;2023-11-22T15:17:53;6.30;1.00
15296;DHT22;7749;49.964;7.890;2023-11-22T15:20:22;6.20;1.00
15296;DHT22;7749;49.964;7.890;2023-11-22T15:22:50;6.10;1.00
15296;DHT22;7749;49.964;7.890;2023-11-22T15:25:18;6.00;1.00
15296;DHT22;7749;49.964;7.890;2023-11-22T15:27:45;5.80;99.90
15296;DHT22;7749;49.964;7.890;2023-11-22T15:30:13;5.70;99.90
15296;DHT22;7749;49.964;7.890;2023-11-22T15:32:41;5.60;1.00
15296;DHT22;7749;49.964;7.890;2023-11-22T15:35:08;5.40;1.00
15296;DHT22;7749;49.964;7.890;2023-11-22T15:37:36;5.20;1.00
15296;DHT22;7749;49.964;7.890;2023-11-22T15:40:04;5.10;99.90
15296;DHT22;7749;49.964;7.890;2023-11-22T15:42:34;5.00;99.90
15296;DHT22;7749;49.964;7.890;2023-11-22T15:45:02;4.90;1.00
15296;DHT22;7749;49.964;7.890;2023-11-22T15:47:30;4.80;1.00
15296;DHT22;7749;49.964;7.890;2023-11-22T15:49:58;4.70;99.90
15296;DHT22;7749;49.964;7.890;2023-11-22T15:52:25;4.70;1.00
15296;DHT22;7749;49.964;7.890;2023-11-22T15:54:55;4.70;1.00
15296;DHT22;7749;49.964;7.890;2023-11-22T15:57:23;4.70;99.90
15296;DHT22;7749;49.964;7.890;2023-11-22T15:59:50;4.60;99.90
15296;DHT22;7749;49.964;7.890;2023-11-22T16:02:18;4.60;99.90
15296;DHT22;7749;49.964;7.890;2023-11-22T16:04:45;4.50;1.00
15296;DHT22;7749;49.964;7.890;2023-11-22T16:07:13;4.50;1.00
15296;DHT22;7749;49.964;7.890;2023-11-22T16:09:40;4.50;75.60
15296;DHT22;7749;49.964;7.890;2023-11-22T16:12:11;4.40;1.00
15296;DHT22;7749;49.964;7.890;2023-11-22T16:14:46;4.40;1.00
15296;DHT22;7749;49.964;7.890;2023-11-22T16:17:17;4.40;99.90
15296;DHT22;7749;49.964;7.890;2023-11-22T16:19:46;4.40;99.90
15296;DHT22;7749;49.964;7.890;2023-11-22T16:22:14;4.40;1.00
15296;DHT22;7749;49.964;7.890;2023-11-22T16:24:42;4.40;1.00
15296;DHT22;7749;49.964;7.890;2023-11-22T16:27:10;4.50;1.00
15296;DHT22;7749;49.964;7.890;2023-11-22T16:29:37;4.40;99.90
15296;DHT22;7749;49.964;7.890;2023-11-22T16:32:05;4.40;1.00
15296;DHT22;7749;49.964;7.890;2023-11-22T16:34:33;4.40;1.00
15296;DHT22;7749;49.964;7.890;2023-11-22T16:37:01;4.40;1.00
15296;DHT22;7749;49.964;7.890;2023-11-22T16:39:29;4.40;1.00
15296;DHT22;7749;49.964;7.890;2023-11-22T16:41:57;4.50;1.00
15296;DHT22;7749;49.964;7.890;2023-11-22T16:44:25;4.40;1.00
15296;DHT22;7749;49.964;7.890;2023-11-22T16:46:52;4.40;99.90
15296;DHT22;7749;49.964;7.890;2023-11-22T16:49:20;4.40;1.00
15296;DHT22;7749;49.964;7.890;2023-11-22T16:51:48;4.40;1.00
15296;DHT22;7749;49.964;7.890;2023-11-22T16:54:15;4.40;99.90
15296;DHT22;7749;49.964;7.890;2023-11-22T16:56:43;4.40;99.90
15296;DHT22;7749;49.964;7.890;2023-11-22T16:59:10;4.30;99.90
15296;DHT22;7749;49.964;7.890;2023-11-22T17:01:39;4.20;1.00
15296;DHT22;7749;49.964;7.890;2023-11-22T17:04:06;4.20;42.50
15296;DHT22;7749;49.964;7.890;2023-11-22T17:06:35;4.20;1.00
15296;DHT22;7749;49.964;7.890;2023-11-22T17:09:03;4.10;1.00
15296;DHT22;7749;49.964;7.890;2023-11-22T17:11:32;4.10;25.90
15296;DHT22;7749;49.964;7.890;2023-11-22T17:13:59;4.10;1.00
15296;DHT22;7749;49.964;7.890;2023-11-22T17:16:27;4.10;1.00
15296;DHT22;7749;49.964;7.890;2023-11-22T17:18:56;4.10;1.00